Paluxy, Texas
Current Conditions -  °F | °C
As of 2:35 AM on Sunday 21 Dec 2014 (Local Time) from KGDJ Reporting Station
Haze Haze  
Wind Chill: 45°   Ceiling: 2100
Heat Index: 48°   Visibility: 5mi
Dew Point: 46°   Wind: 8mph
Humidity: 90%   Direction: 120°ESE
Pressure: 30.14"   Gusts: NA
Location:  32.27°N, 97.91°W
Report Text: KGDJ 210835Z AUTO 12007KT 5SM BR OVC021 09/08 A3014 RMK AO2 T00900075
Loading
Personal Weather Stations






























Interactive Weather Map New forecast layout! Learn more

10-Day Weather Forecast

Advertisements
Track Severe Weather on mobile